createdAt,value
2022-11-08T00:01:56.328Z,7.41
2022-11-08T00:07:15.637Z,7.36
2022-11-08T00:12:34.873Z,7.34
2022-11-08T00:17:36.037Z,7.24
2022-11-08T00:22:37.024Z,7.19
2022-11-08T00:27:37.836Z,7.26
2022-11-08T00:32:38.665Z,7.20
2022-11-08T00:37:43.092Z,7.16
2022-11-08T00:42:43.807Z,7.12
2022-11-08T00:47:49.537Z,7.03
2022-11-08T00:52:50.306Z,6.98
2022-11-08T00:57:59.763Z,6.99
2022-11-08T01:03:19.476Z,7.01
2022-11-08T01:08:22.509Z,7.10
2022-11-08T01:13:23.216Z,7.20
2022-11-08T01:18:26.485Z,7.14
2022-11-08T01:23:27.163Z,7.11
2022-11-08T01:28:56.255Z,7.05
2022-11-08T01:33:58.431Z,7.07
2022-11-08T01:39:02.789Z,7.07
2022-11-08T01:44:15.291Z,6.88
2022-11-08T01:49:46.808Z,6.72
2022-11-08T02:01:37.320Z,6.69
2022-11-08T02:06:46.049Z,6.79
2022-11-08T02:11:51.131Z,6.63
2022-11-08T02:16:58.297Z,6.62
2022-11-08T02:22:06.226Z,6.69
2022-11-08T02:27:07.439Z,6.78
2022-11-08T02:32:10.321Z,6.67
2022-11-08T02:37:17.877Z,6.58
2022-11-08T02:42:21.837Z,6.51
2022-11-08T02:47:23.360Z,6.55
2022-11-08T02:52:26.788Z,6.51
2022-11-08T02:57:27.515Z,6.41
2022-11-08T03:02:28.430Z,6.28
2022-11-08T03:07:29.313Z,6.32
2022-11-08T03:12:36.220Z,6.30
2022-11-08T03:17:37.076Z,6.17
2022-11-08T03:22:47.105Z,5.91
2022-11-08T03:27:48.378Z,6.07
2022-11-08T03:32:53.212Z,6.07
2022-11-08T03:37:57.794Z,6.14
2022-11-08T03:43:10.854Z,6.16
2022-11-08T03:48:11.640Z,6.00
2022-11-08T03:53:15.772Z,5.81
2022-11-08T03:58:23.165Z,5.57
2022-11-08T04:03:24.521Z,5.41
2022-11-08T04:08:25.390Z,5.30
2022-11-08T04:13:44.429Z,5.30
2022-11-08T04:19:03.911Z,5.58
2022-11-08T04:24:05.767Z,5.77
2022-11-08T04:29:13.049Z,5.62
2022-11-08T04:34:13.784Z,5.55
2022-11-08T04:39:17.577Z,5.62
2022-11-08T04:44:18.497Z,5.71
2022-11-08T04:49:22.338Z,5.87
2022-11-08T04:54:23.575Z,5.88
2022-11-08T04:59:24.323Z,6.06
2022-11-08T05:04:25.023Z,6.09
2022-11-08T05:09:34.518Z,6.09
2022-11-08T05:14:36.349Z,6.14
2022-11-08T05:19:56.297Z,6.16
2022-11-08T05:24:57.127Z,6.12
2022-11-08T05:30:00.585Z,6.07
2022-11-08T05:35:04.900Z,6.12
2022-11-08T05:40:10.966Z,6.18
2022-11-08T05:45:11.816Z,6.18
2022-11-08T05:50:19.126Z,6.36
2022-11-08T05:55:30.259Z,6.37
2022-11-08T06:00:34.230Z,6.21
2022-11-08T06:05:37.818Z,6.21
2022-11-08T06:10:38.625Z,6.02
2022-11-08T06:15:42.311Z,6.14
2022-11-08T06:20:43.041Z,6.19
2022-11-08T06:25:47.719Z,6.18
2022-11-08T06:30:48.850Z,6.23
2022-11-08T06:35:49.754Z,6.04
2022-11-08T06:40:50.832Z,5.95
2022-11-08T06:45:52.166Z,6.06
2022-11-08T06:50:58.923Z,6.11
2022-11-08T06:56:06.449Z,6.10
2022-11-08T07:01:09.766Z,6.26
2022-11-08T07:06:16.371Z,6.25
2022-11-08T07:11:21.485Z,6.39
2022-11-08T07:16:27.691Z,6.43
2022-11-08T07:21:28.690Z,6.42
2022-11-08T07:26:29.945Z,6.38
2022-11-08T07:31:30.712Z,6.51
2022-11-08T07:36:34.979Z,6.56
2022-11-08T07:41:36.178Z,6.68
2022-11-08T07:46:37.509Z,6.61
2022-11-08T07:51:38.286Z,6.63
2022-11-08T07:56:42.094Z,6.88
2022-11-08T08:01:42.909Z,6.96
2022-11-08T08:06:51.595Z,7.41
2022-11-08T08:11:53.671Z,7.87
2022-11-08T08:16:55.212Z,8.16
2022-11-08T08:21:59.933Z,8.22
2022-11-08T08:27:06.249Z,8.41
2022-11-08T08:32:14.183Z,8.70
2022-11-08T08:37:16.526Z,8.72
2022-11-08T08:42:21.010Z,8.86
2022-11-08T08:47:21.779Z,8.82
2022-11-08T08:52:24.911Z,8.85
2022-11-08T08:57:29.343Z,8.84
2022-11-08T09:02:34.660Z,8.78
2022-11-08T09:07:37.148Z,9.13
2022-11-08T09:12:38.069Z,9.31
2022-11-08T09:17:44.723Z,9.15
2022-11-08T09:22:55.701Z,9.54
2022-11-08T09:27:59.384Z,10.14
2022-11-08T09:33:02.904Z,10.37
2022-11-08T09:38:07.926Z,10.87
2022-11-08T09:44:15.001Z,11.52
2022-11-08T09:49:33.728Z,11.42
2022-11-08T09:54:42.020Z,11.58
2022-11-08T09:59:48.511Z,11.92
2022-11-08T10:04:57.685Z,12.62
2022-11-08T10:14:46.731Z,12.72
2022-11-08T10:20:20.127Z,12.41
2022-11-08T10:25:32.390Z,12.12
2022-11-08T10:30:43.249Z,11.59
2022-11-08T10:36:06.687Z,11.17
2022-11-08T10:41:33.188Z,10.93
2022-11-08T10:46:59.732Z,10.75
2022-11-08T10:53:05.178Z,10.52
2022-11-08T10:58:38.568Z,10.67
2022-11-08T11:03:42.244Z,10.48
2022-11-08T11:08:48.948Z,10.51
2022-11-08T11:14:21.893Z,10.57
2022-11-08T11:19:27.949Z,10.45
2022-11-08T11:24:32.312Z,10.46
2022-11-08T11:29:35.703Z,10.60
2022-11-08T11:35:09.161Z,10.75
2022-11-08T11:40:18.465Z,10.66
2022-11-08T11:45:54.945Z,10.64
2022-11-08T11:50:57.280Z,10.73
2022-11-08T11:56:40.317Z,10.58
2022-11-08T12:09:21.135Z,10.83
2022-11-08T12:17:56.417Z,11.32
2022-11-08T12:23:25.731Z,11.91
2022-11-08T12:28:57.741Z,12.34
2022-11-08T12:37:50.700Z,12.87
2022-11-08T12:43:05.332Z,13.24
2022-11-08T12:51:23.674Z,13.26
2022-11-08T12:56:43.561Z,13.43
2022-11-08T13:01:48.480Z,13.38
2022-11-08T13:06:58.127Z,13.44
2022-11-08T13:15:09.595Z,13.70
2022-11-08T13:22:02.053Z,13.61
2022-11-08T13:27:40.139Z,13.81
2022-11-08T13:33:03.459Z,13.01
2022-11-08T13:40:56.246Z,13.10
2022-11-08T13:46:45.346Z,12.87
2022-11-08T13:52:40.481Z,12.72
2022-11-08T13:58:08.144Z,12.88
2022-11-08T14:03:51.708Z,12.30
2022-11-08T14:09:33.433Z,12.35
2022-11-08T14:15:16.614Z,12.28
2022-11-08T14:20:40.279Z,12.18
2022-11-08T14:25:45.789Z,12.22
2022-11-08T14:30:53.895Z,12.49
2022-11-08T14:36:01.319Z,12.66
2022-11-08T14:41:08.018Z,12.65
2022-11-08T14:46:14.880Z,12.75
2022-11-08T14:51:23.268Z,12.73
2022-11-08T14:56:35.553Z,12.62
2022-11-08T15:01:43.371Z,12.39
2022-11-08T15:06:49.224Z,12.28
2022-11-08T15:11:59.667Z,12.07
2022-11-08T15:17:04.069Z,11.97
2022-11-08T15:22:31.938Z,12.00
2022-11-08T15:27:36.609Z,11.86
2022-11-08T15:32:43.808Z,11.61
2022-11-08T15:37:58.431Z,11.43
2022-11-08T15:43:23.041Z,11.36
2022-11-08T15:48:36.287Z,11.36
2022-11-08T15:53:37.340Z,11.14
2022-11-08T15:58:41.383Z,11.18
2022-11-08T16:03:46.446Z,11.12
2022-11-08T16:09:03.779Z,11.16
2022-11-08T16:14:05.978Z,11.08
2022-11-08T16:19:25.872Z,10.87
2022-11-08T16:24:36.781Z,10.77
2022-11-08T16:29:37.560Z,10.59
2022-11-08T16:34:44.258Z,10.45
2022-11-08T16:39:48.186Z,10.20
2022-11-08T16:45:01.864Z,10.18
2022-11-08T16:50:03.498Z,10.11
2022-11-08T16:55:21.382Z,10.12
2022-11-08T17:00:25.088Z,10.15
2022-11-08T17:05:26.100Z,9.89
2022-11-08T17:10:29.547Z,9.87
2022-11-08T17:15:34.306Z,9.95
2022-11-08T17:20:35.491Z,9.90
2022-11-08T17:25:43.839Z,9.90
2022-11-08T17:30:47.590Z,9.95
2022-11-08T17:35:48.322Z,9.87
2022-11-08T17:40:49.362Z,10.00
2022-11-08T17:45:59.610Z,9.91
2022-11-08T17:51:00.951Z,10.01
2022-11-08T17:56:04.966Z,10.16
2022-11-08T18:01:13.882Z,10.32
2022-11-08T18:06:15.776Z,10.31
2022-11-08T18:11:17.182Z,10.26
2022-11-08T18:16:21.263Z,10.27
2022-11-08T18:21:22.205Z,10.26
2022-11-08T18:26:29.198Z,10.20
2022-11-08T18:31:32.015Z,10.09
2022-11-08T18:36:33.044Z,9.99
2022-11-08T18:41:34.095Z,10.02
2022-11-08T18:46:59.242Z,9.85
2022-11-08T18:52:01.890Z,9.68
2022-11-08T18:57:12.030Z,9.65
2022-11-08T19:02:14.060Z,9.75
2022-11-08T19:07:15.440Z,9.96
2022-11-08T19:12:22.724Z,10.04
2022-11-08T19:17:23.488Z,9.99
2022-11-08T19:22:27.927Z,10.21
2022-11-08T19:27:28.869Z,10.16
2022-11-08T19:32:34.218Z,10.13
2022-11-08T19:37:34.982Z,10.51
2022-11-08T19:42:36.176Z,10.71
2022-11-08T19:47:36.911Z,10.83
2022-11-08T19:52:37.918Z,10.91
2022-11-08T19:57:38.681Z,10.80
2022-11-08T20:02:43.995Z,10.76
2022-11-08T20:07:46.214Z,10.78
2022-11-08T20:12:49.067Z,10.85
2022-11-08T20:17:50.010Z,10.74
2022-11-08T20:22:50.819Z,10.84
2022-11-08T20:27:55.377Z,10.82
2022-11-08T20:32:56.614Z,10.89
2022-11-08T20:37:57.393Z,10.98
2022-11-08T20:43:02.400Z,11.13
2022-11-08T20:48:03.502Z,11.28
2022-11-08T20:53:10.784Z,11.19
2022-11-08T20:58:11.530Z,11.13
2022-11-08T21:03:17.771Z,11.13
2022-11-08T21:13:52.323Z,11.21
2022-11-08T21:18:53.564Z,11.18
2022-11-08T21:23:54.741Z,11.07
2022-11-08T21:28:55.680Z,11.12
2022-11-08T21:33:57.506Z,11.06
2022-11-08T21:38:58.498Z,11.29
2022-11-08T21:44:01.675Z,11.16
2022-11-08T21:49:18.700Z,10.96
2022-11-08T21:54:19.491Z,10.80
2022-11-08T21:59:20.302Z,10.82
2022-11-08T22:04:24.106Z,10.72
2022-11-08T22:09:24.952Z,10.76
2022-11-08T22:14:26.182Z,10.73
2022-11-08T22:19:27.406Z,10.67
2022-11-08T22:24:28.166Z,10.63
2022-11-08T22:29:29.099Z,10.54
2022-11-08T22:34:33.521Z,10.52
2022-11-08T22:39:34.268Z,10.30
2022-11-08T22:44:35.453Z,10.28
2022-11-08T22:49:38.746Z,10.29
2022-11-08T22:54:43.759Z,10.34
2022-11-08T22:59:44.476Z,10.35
2022-11-08T23:04:45.249Z,10.36
2022-11-08T23:09:45.960Z,10.36
2022-11-08T23:15:05.212Z,10.43
2022-11-08T23:20:24.712Z,10.50
2022-11-08T23:25:28.916Z,10.34
2022-11-08T23:30:48.241Z,10.51
2022-11-08T23:36:19.852Z,10.50
2022-11-08T23:41:40.521Z,10.54
2022-11-08T23:46:45.076Z,10.48
2022-11-08T23:51:46.734Z,10.36
2022-11-08T23:56:47.990Z,10.39
